createdAt,value
2023-05-01T00:00:54.530Z,3.98
2023-05-01T00:01:54.474Z,3.95
2023-05-01T00:02:54.671Z,4.02
2023-05-01T00:03:54.765Z,3.98
2023-05-01T00:04:54.514Z,3.95
2023-05-01T00:05:54.335Z,4.02
2023-05-01T00:06:54.341Z,3.98
2023-05-01T00:07:54.261Z,3.94
2023-05-01T00:08:54.224Z,3.91
2023-05-01T00:09:54.394Z,4.01
2023-05-01T00:10:54.233Z,4.01
2023-05-01T00:11:54.109Z,3.98
2023-05-01T00:12:54.073Z,4.04
2023-05-01T00:13:54.035Z,4.02
2023-05-01T00:14:54.000Z,3.99
2023-05-01T00:15:54.000Z,3.95
2023-05-01T00:16:54.058Z,3.94
2023-05-01T00:17:53.923Z,3.87
2023-05-01T00:18:53.858Z,3.92
2023-05-01T00:19:53.962Z,3.87
2023-05-01T00:20:53.773Z,3.88
2023-05-01T00:21:53.823Z,3.94
2023-05-01T00:22:53.857Z,3.92
2023-05-01T00:23:53.669Z,3.99
2023-05-01T00:24:53.633Z,3.87
2023-05-01T00:25:53.650Z,3.87
2023-05-01T00:26:53.560Z,3.84
2023-05-01T00:27:53.582Z,3.87
2023-05-01T00:28:53.493Z,3.95
2023-05-01T00:29:53.562Z,3.96
2023-05-01T00:30:53.408Z,4.01
2023-05-01T00:31:53.410Z,4.04
2023-05-01T00:32:53.429Z,4.02
2023-05-01T00:33:53.347Z,4.05
2023-05-01T00:34:53.274Z,4.13
2023-05-01T00:35:53.238Z,4.12
2023-05-01T00:36:53.188Z,4.08
2023-05-01T00:37:53.161Z,4.20
2023-05-01T00:38:53.181Z,4.13
2023-05-01T00:39:53.176Z,4.08
2023-05-01T00:40:53.047Z,4.17
2023-05-01T00:41:53.010Z,4.14
2023-05-01T00:42:52.974Z,4.13
2023-05-01T00:43:52.938Z,4.22
2023-05-01T00:44:52.946Z,4.13
2023-05-01T00:45:52.918Z,4.17
2023-05-01T00:46:52.818Z,4.17
2023-05-01T00:47:52.863Z,4.17
2023-05-01T00:48:52.746Z,4.17
2023-05-01T00:49:52.779Z,4.13
2023-05-01T00:50:52.735Z,4.22
2023-05-01T00:51:52.632Z,4.30
2023-05-01T00:52:52.608Z,4.24
2023-05-01T00:53:52.571Z,4.35
2023-05-01T00:54:52.543Z,4.35
2023-05-01T00:55:52.518Z,4.37
2023-05-01T00:56:52.597Z,4.37
2023-05-01T00:57:52.425Z,4.45
2023-05-01T00:58:52.401Z,4.42
2023-05-01T00:59:52.341Z,4.44
2023-05-01T01:00:52.398Z,4.44
2023-05-01T01:01:54.926Z,4.44
2023-05-01T01:02:52.365Z,4.41
2023-05-01T01:03:52.438Z,4.40
2023-05-01T01:04:52.193Z,4.41
2023-05-01T01:05:52.172Z,4.48
2023-05-01T01:06:52.084Z,4.37
2023-05-01T01:07:52.050Z,4.40
2023-05-01T01:08:52.068Z,4.40
2023-05-01T01:09:51.968Z,4.40
2023-05-01T01:10:51.986Z,4.41
2023-05-01T01:11:51.932Z,4.40
2023-05-01T01:12:51.860Z,4.38
2023-05-01T01:13:51.832Z,4.22
2023-05-01T01:14:51.856Z,4.23
2023-05-01T01:15:51.768Z,4.24
2023-05-01T01:16:51.750Z,4.24
2023-05-01T01:17:51.741Z,4.28
2023-05-01T01:18:51.646Z,4.40
2023-05-01T01:19:51.605Z,4.40
2023-05-01T01:20:51.639Z,4.48
2023-05-01T01:21:51.577Z,4.42
2023-05-01T01:22:51.575Z,4.42
2023-05-01T01:23:51.458Z,4.45
2023-05-01T01:24:51.422Z,4.37
2023-05-01T01:25:51.389Z,4.38
2023-05-01T01:26:51.400Z,4.26
2023-05-01T01:27:51.313Z,4.38
2023-05-01T01:28:51.270Z,4.26
2023-05-01T01:29:51.239Z,4.32
2023-05-01T01:30:51.245Z,4.32
2023-05-01T01:31:51.235Z,4.37
2023-05-01T01:32:51.195Z,4.31
2023-05-01T01:33:51.112Z,4.30
2023-05-01T01:34:51.120Z,4.34
2023-05-01T01:35:51.014Z,4.41
2023-05-01T01:36:51.037Z,4.37
2023-05-01T01:37:50.936Z,4.41
2023-05-01T01:38:50.919Z,4.40
2023-05-01T01:39:50.869Z,4.45
2023-05-01T01:40:50.828Z,4.42
2023-05-01T01:41:50.862Z,4.49
2023-05-01T01:42:50.756Z,4.41
2023-05-01T01:43:50.741Z,4.48
2023-05-01T01:44:50.699Z,4.52
2023-05-01T01:45:50.712Z,4.48
2023-05-01T01:46:50.612Z,4.44
2023-05-01T01:47:50.671Z,4.52
2023-05-01T01:48:50.531Z,4.52
2023-05-01T01:49:50.526Z,4.50
2023-05-01T01:50:50.466Z,4.48
2023-05-01T01:51:50.427Z,4.38
2023-05-01T01:52:50.393Z,4.40
2023-05-01T01:53:50.420Z,4.48
2023-05-01T01:54:50.330Z,4.49
2023-05-01T01:55:50.273Z,4.45
2023-05-01T01:56:50.238Z,4.48
2023-05-01T01:57:50.203Z,4.55
2023-05-01T01:58:50.170Z,4.55
2023-05-01T01:59:50.203Z,4.59
2023-05-01T02:00:50.086Z,4.48
2023-05-01T02:01:50.119Z,4.56
2023-05-01T02:02:50.129Z,4.55
2023-05-01T02:03:50.087Z,4.56
2023-05-01T02:04:49.948Z,4.48
2023-05-01T02:05:49.977Z,4.55
2023-05-01T02:06:50.017Z,4.59
2023-05-01T02:07:49.852Z,4.59
2023-05-01T02:08:49.801Z,4.66
2023-05-01T02:09:49.769Z,4.73
2023-05-01T02:10:49.721Z,4.80
2023-05-01T02:11:49.747Z,4.84
2023-05-01T02:12:49.656Z,4.74
2023-05-01T02:13:49.620Z,4.77
2023-05-01T02:14:49.587Z,4.77
2023-05-01T02:15:49.559Z,4.84
2023-05-01T02:16:49.559Z,4.78
2023-05-01T02:17:49.550Z,4.78
2023-05-01T02:18:49.513Z,4.75
2023-05-01T02:19:49.400Z,4.71
2023-05-01T02:20:49.374Z,4.77
2023-05-01T02:21:49.322Z,4.78
2023-05-01T02:22:49.325Z,4.78
2023-05-01T02:23:49.254Z,4.75
2023-05-01T02:24:49.397Z,4.86
2023-05-01T02:25:49.178Z,4.82
2023-05-01T02:26:49.139Z,4.94
2023-05-01T02:27:49.121Z,4.93
2023-05-01T02:28:49.065Z,4.84
2023-05-01T02:29:49.108Z,4.96
2023-05-01T02:30:48.994Z,4.97
2023-05-01T02:31:48.991Z,4.94
2023-05-01T02:32:48.942Z,4.90
2023-05-01T02:33:48.895Z,4.90
2023-05-01T02:34:48.885Z,4.92
2023-05-01T02:35:48.867Z,4.93
2023-05-01T02:36:48.777Z,4.89
2023-05-01T02:37:48.742Z,4.78
2023-05-01T02:38:48.707Z,4.78
2023-05-01T02:39:48.662Z,4.73
2023-05-01T02:40:48.689Z,4.74
2023-05-01T02:41:48.596Z,4.75
2023-05-01T02:42:48.556Z,4.71
2023-05-01T02:43:48.522Z,4.70
2023-05-01T02:44:48.479Z,4.71
2023-05-01T02:45:48.539Z,4.71
2023-05-01T02:46:48.474Z,4.68
2023-05-01T02:47:48.507Z,4.80
2023-05-01T02:48:48.338Z,4.86
2023-05-01T02:49:48.300Z,4.74
2023-05-01T02:50:48.307Z,4.80
2023-05-01T02:51:48.222Z,4.84
2023-05-01T02:52:48.181Z,4.80
2023-05-01T02:53:48.155Z,4.84
2023-05-01T02:54:48.117Z,4.82
2023-05-01T02:55:48.139Z,4.75
2023-05-01T02:56:48.114Z,4.84
2023-05-01T02:57:47.995Z,4.82
2023-05-01T02:58:47.962Z,4.74
2023-05-01T02:59:47.982Z,4.86
2023-05-01T03:00:47.913Z,4.82
2023-05-01T03:01:47.939Z,4.73
2023-05-01T03:02:47.909Z,4.71
2023-05-01T03:03:47.827Z,4.70
2023-05-01T03:04:47.797Z,4.59
2023-05-01T03:05:47.824Z,4.62
2023-05-01T03:06:47.861Z,4.55
2023-05-01T03:07:47.701Z,4.55
2023-05-01T03:08:47.592Z,4.58
2023-05-01T03:09:47.589Z,4.48
2023-05-01T03:10:47.529Z,4.42
2023-05-01T03:11:47.495Z,4.38
2023-05-01T03:12:47.579Z,4.42
2023-05-01T03:13:47.416Z,4.49
2023-05-01T03:14:47.375Z,4.38
2023-05-01T03:15:47.343Z,4.41
2023-05-01T03:16:47.336Z,4.45
2023-05-01T03:17:47.280Z,4.41
2023-05-01T03:18:47.289Z,4.37
2023-05-01T03:19:47.197Z,4.40
2023-05-01T03:20:47.162Z,4.32
2023-05-01T03:21:47.115Z,4.42
2023-05-01T03:22:47.106Z,4.35
2023-05-01T03:23:47.112Z,4.32
2023-05-01T03:24:47.015Z,4.44
2023-05-01T03:25:46.989Z,4.38
2023-05-01T03:26:46.938Z,4.48
2023-05-01T03:27:46.890Z,4.41
2023-05-01T03:28:46.929Z,4.50
2023-05-01T03:29:46.899Z,4.52
2023-05-01T03:30:46.800Z,4.55
2023-05-01T03:31:46.792Z,4.44
2023-05-01T03:32:46.779Z,4.55
2023-05-01T03:33:46.675Z,4.41
2023-05-01T03:34:46.636Z,4.38
2023-05-01T03:35:46.741Z,4.44
2023-05-01T03:36:46.565Z,4.45
2023-05-01T03:37:46.544Z,4.44
2023-05-01T03:38:46.495Z,4.35
2023-05-01T03:39:46.459Z,4.32
2023-05-01T03:40:46.418Z,4.32
2023-05-01T03:41:46.446Z,4.30
2023-05-01T03:42:46.349Z,4.23
2023-05-01T03:43:46.312Z,4.17
2023-05-01T03:44:46.266Z,4.26
2023-05-01T03:45:46.340Z,4.31
2023-05-01T03:46:46.237Z,4.34
2023-05-01T03:47:46.330Z,4.34
2023-05-01T03:48:46.145Z,4.38
2023-05-01T03:49:46.088Z,4.38
2023-05-01T03:50:46.050Z,4.35
2023-05-01T03:51:46.016Z,4.41
2023-05-01T03:52:46.029Z,4.41
2023-05-01T03:53:45.946Z,4.38
2023-05-01T03:54:45.897Z,4.42
2023-05-01T03:55:45.859Z,4.48
2023-05-01T03:56:45.826Z,4.55
2023-05-01T03:57:45.800Z,4.50
2023-05-01T03:58:45.847Z,4.59
2023-05-01T03:59:45.727Z,4.77
2023-05-01T04:00:45.709Z,5.05
2023-05-01T04:01:45.714Z,5.38
2023-05-01T04:02:45.858Z,5.43
2023-05-01T04:03:45.611Z,5.62
2023-05-01T04:04:45.594Z,5.87
2023-05-01T04:05:45.508Z,5.99
2023-05-01T04:06:45.518Z,6.22
2023-05-01T04:07:45.469Z,6.63
2023-05-01T04:08:45.386Z,6.77
2023-05-01T04:09:45.356Z,6.95
2023-05-01T04:10:45.375Z,7.07
2023-05-01T04:11:45.280Z,6.92
2023-05-01T04:12:45.238Z,6.81
2023-05-01T04:13:45.199Z,6.81
2023-05-01T04:14:45.180Z,6.85
2023-05-01T04:15:45.148Z,6.92
2023-05-01T04:16:45.150Z,6.93
2023-05-01T04:17:45.090Z,7.15
2023-05-01T04:18:45.032Z,7.32
2023-05-01T04:19:45.000Z,7.60
2023-05-01T04:20:44.959Z,7.80
2023-05-01T04:21:44.984Z,7.79
2023-05-01T04:22:44.972Z,7.87
2023-05-01T04:23:44.856Z,7.82
2023-05-01T04:24:44.809Z,8.06
2023-05-01T04:25:44.779Z,8.08
2023-05-01T04:26:44.754Z,8.44
2023-05-01T04:27:44.714Z,8.49
2023-05-01T04:28:44.745Z,8.46
2023-05-01T04:29:44.657Z,8.36
2023-05-01T04:30:44.612Z,8.31
2023-05-01T04:31:44.591Z,8.20
2023-05-01T04:32:44.590Z,8.18
2023-05-01T04:33:44.499Z,8.19
2023-05-01T04:34:44.522Z,8.08
2023-05-01T04:35:44.419Z,8.10
2023-05-01T04:36:44.402Z,8.10
2023-05-01T04:37:44.357Z,8.12
2023-05-01T04:38:44.314Z,8.06
2023-05-01T04:39:44.298Z,8.15
2023-05-01T04:40:44.306Z,8.12
2023-05-01T04:41:44.220Z,8.18
2023-05-01T04:42:44.177Z,8.18
2023-05-01T04:43:44.148Z,8.12
2023-05-01T04:44:44.102Z,8.15
2023-05-01T04:45:44.084Z,8.09
2023-05-01T04:46:44.142Z,8.19
2023-05-01T04:47:44.069Z,8.24
2023-05-01T04:48:43.969Z,8.42
2023-05-01T04:49:43.942Z,8.48
2023-05-01T04:50:43.920Z,8.63
2023-05-01T04:51:43.952Z,8.85
2023-05-01T04:52:43.836Z,9.02
2023-05-01T04:53:43.805Z,8.95
2023-05-01T04:54:43.757Z,9.19
2023-05-01T04:55:43.733Z,9.31
2023-05-01T04:56:43.715Z,9.36
2023-05-01T04:57:43.714Z,9.43
2023-05-01T04:58:43.620Z,9.36
2023-05-01T04:59:43.601Z,9.23
2023-05-01T05:00:43.550Z,9.23
2023-05-01T05:01:43.589Z,9.02
2023-05-01T05:02:43.670Z,8.69
2023-05-01T05:03:43.541Z,8.42
2023-05-01T05:04:43.411Z,8.19
2023-05-01T05:05:43.376Z,8.09
2023-05-01T05:06:43.381Z,7.95
2023-05-01T05:07:43.324Z,7.98
2023-05-01T05:08:43.354Z,7.87
2023-05-01T05:09:43.251Z,7.80
2023-05-01T05:10:43.207Z,7.76
2023-05-01T05:11:43.178Z,7.73
2023-05-01T05:12:43.143Z,7.69
2023-05-01T05:13:43.117Z,7.63
2023-05-01T05:14:43.184Z,7.63
2023-05-01T05:15:43.049Z,7.67
2023-05-01T05:16:43.093Z,7.72
2023-05-01T05:17:43.005Z,7.66
2023-05-01T05:18:43.008Z,7.75
2023-05-01T05:19:42.977Z,7.72
2023-05-01T05:20:42.870Z,7.75
2023-05-01T05:21:42.837Z,7.77
2023-05-01T05:22:42.806Z,7.91
2023-05-01T05:23:42.778Z,7.83
2023-05-01T05:24:42.784Z,7.85
2023-05-01T05:25:42.699Z,7.85
2023-05-01T05:26:42.686Z,7.94
2023-05-01T05:27:42.624Z,7.83
2023-05-01T05:28:42.594Z,7.94
2023-05-01T05:29:42.561Z,7.98
2023-05-01T05:30:42.585Z,7.97
2023-05-01T05:31:42.538Z,8.05
2023-05-01T05:32:42.474Z,7.95
2023-05-01T05:33:42.425Z,8.09
2023-05-01T05:34:42.393Z,8.06
2023-05-01T05:35:42.446Z,8.10
2023-05-01T05:36:42.366Z,8.10
2023-05-01T05:37:43.412Z,8.06
2023-05-01T05:38:42.268Z,8.15
2023-05-01T05:39:42.251Z,8.19
2023-05-01T05:40:42.186Z,8.20
2023-05-01T05:41:42.151Z,8.24
2023-05-01T05:42:42.171Z,8.20
2023-05-01T05:43:42.092Z,8.28
2023-05-01T05:44:42.054Z,8.36
2023-05-01T05:45:42.112Z,8.31
2023-05-01T05:46:42.029Z,8.26
2023-05-01T05:47:42.033Z,8.28
2023-05-01T05:48:41.903Z,8.37
2023-05-01T05:49:41.923Z,8.41
2023-05-01T05:50:41.909Z,8.55
2023-05-01T05:51:41.803Z,8.55
2023-05-01T05:52:41.765Z,8.66
2023-05-01T05:53:41.736Z,8.67
2023-05-01T05:54:41.706Z,8.74
2023-05-01T05:55:41.723Z,8.78
2023-05-01T05:56:41.630Z,8.84
2023-05-01T05:57:41.605Z,8.89
2023-05-01T05:58:41.609Z,8.92
2023-05-01T05:59:41.541Z,8.89
2023-05-01T06:00:41.612Z,8.95
2023-05-01T06:01:41.453Z,8.92
2023-05-01T06:02:41.469Z,8.94
2023-05-01T06:03:41.598Z,8.97
2023-05-01T06:04:41.370Z,9.22
2023-05-01T06:05:41.413Z,9.14
2023-05-01T06:06:41.363Z,9.21
2023-05-01T06:07:41.251Z,9.25
2023-05-01T06:08:41.205Z,9.26
2023-05-01T06:09:41.182Z,9.26
2023-05-01T06:10:41.149Z,9.31
2023-05-01T06:11:41.307Z,9.37
2023-05-01T06:12:44.688Z,9.59
2023-05-01T06:13:41.047Z,9.47
2023-05-01T06:14:41.018Z,9.62
2023-05-01T06:15:41.064Z,9.73
2023-05-01T06:16:40.946Z,9.69
2023-05-01T06:17:40.968Z,9.77
2023-05-01T06:18:40.877Z,9.83
2023-05-01T06:19:40.835Z,9.94
2023-05-01T06:20:40.805Z,9.98
2023-05-01T06:21:40.773Z,10.02
2023-05-01T06:22:40.736Z,10.22
2023-05-01T06:23:40.759Z,10.12
2023-05-01T06:24:40.713Z,10.25
2023-05-01T06:25:40.631Z,10.31
2023-05-01T06:26:40.611Z,10.42
2023-05-01T06:27:40.576Z,10.51
2023-05-01T06:28:40.538Z,10.49
2023-05-01T06:29:40.573Z,10.59
2023-05-01T06:30:40.475Z,10.63
2023-05-01T06:31:40.461Z,10.64
2023-05-01T06:32:40.416Z,10.71
2023-05-01T06:33:40.361Z,10.69
2023-05-01T06:34:40.336Z,10.76
2023-05-01T06:35:40.353Z,10.86
2023-05-01T06:36:40.266Z,10.84
2023-05-01T06:37:40.225Z,10.89
2023-05-01T06:38:40.189Z,10.90
2023-05-01T06:39:40.201Z,11.02
2023-05-01T06:40:40.185Z,11.02
2023-05-01T06:41:40.210Z,11.12
2023-05-01T06:42:40.181Z,11.12
2023-05-01T06:43:40.045Z,11.14
2023-05-01T06:44:40.000Z,11.19
2023-05-01T06:45:39.967Z,11.23
2023-05-01T06:46:40.061Z,11.26
2023-05-01T06:47:39.949Z,11.25
2023-05-01T06:48:39.862Z,11.36
2023-05-01T06:49:39.835Z,11.44
2023-05-01T06:50:39.793Z,11.50
2023-05-01T06:51:39.760Z,11.59
2023-05-01T06:52:39.834Z,11.65
2023-05-01T06:53:39.701Z,11.70
2023-05-01T06:54:39.668Z,11.78
2023-05-01T06:55:39.625Z,11.91
2023-05-01T06:56:39.589Z,12.09
2023-05-01T06:57:39.621Z,12.09
2023-05-01T06:58:39.601Z,12.21
2023-05-01T06:59:39.493Z,12.25
2023-05-01T07:00:39.518Z,12.39
2023-05-01T07:01:39.487Z,12.43
2023-05-01T07:02:39.484Z,12.47
2023-05-01T07:03:39.443Z,12.64
2023-05-01T07:04:39.397Z,12.68
2023-05-01T07:05:39.295Z,12.82
2023-05-01T07:06:39.336Z,12.97
2023-05-01T07:07:47.322Z,13.09
2023-05-01T07:08:39.211Z,13.11
2023-05-01T07:09:39.214Z,13.04
2023-05-01T07:10:41.741Z,13.05
2023-05-01T07:11:39.113Z,13.09
2023-05-01T07:12:39.077Z,13.12
2023-05-01T07:13:39.045Z,13.22
2023-05-01T07:14:39.026Z,13.12
2023-05-01T07:15:38.977Z,13.20
2023-05-01T07:16:39.029Z,13.28
2023-05-01T07:17:38.937Z,13.42
2023-05-01T07:18:38.893Z,13.46
2023-05-01T07:19:38.854Z,13.59
2023-05-01T07:20:39.165Z,13.72
2023-05-01T07:21:38.799Z,13.74
2023-05-01T07:22:38.777Z,13.87
2023-05-01T07:23:38.730Z,14.04
2023-05-01T07:24:38.702Z,14.14
2023-05-01T07:25:38.697Z,14.15
2023-05-01T07:26:38.698Z,14.10
2023-05-01T07:27:38.602Z,14.12
2023-05-01T07:28:38.657Z,14.22
2023-05-01T07:29:38.543Z,14.37
2023-05-01T07:30:38.515Z,14.35
2023-05-01T07:31:38.598Z,14.35
2023-05-01T07:32:38.465Z,14.53
2023-05-01T07:33:38.412Z,14.66
2023-05-01T07:34:38.380Z,14.85
2023-05-01T07:35:38.345Z,15.06
2023-05-01T07:36:38.394Z,15.09
2023-05-01T07:37:38.286Z,15.11
2023-05-01T07:38:38.259Z,15.22
2023-05-01T07:39:38.228Z,15.44
2023-05-01T07:40:38.193Z,15.47
2023-05-01T07:41:38.169Z,15.62
2023-05-01T07:42:38.189Z,15.72
2023-05-01T07:43:38.099Z,15.75
2023-05-01T07:44:38.073Z,15.70
2023-05-01T07:45:38.070Z,15.65
2023-05-01T07:46:38.108Z,15.72
2023-05-01T07:47:38.079Z,15.73
2023-05-01T07:48:38.954Z,15.83
2023-05-01T07:49:37.927Z,15.92
2023-05-01T07:50:37.884Z,15.92
2023-05-01T07:51:37.861Z,16.09
2023-05-01T07:52:37.835Z,15.95
2023-05-01T07:53:37.845Z,16.05
2023-05-01T07:54:37.765Z,16.01
2023-05-01T07:55:37.740Z,16.09
2023-05-01T07:56:37.706Z,16.01
2023-05-01T07:57:37.685Z,15.94
2023-05-01T07:58:37.753Z,16.08
2023-05-01T07:59:37.636Z,16.21
2023-05-01T08:00:37.584Z,16.26
2023-05-01T08:01:37.563Z,16.39
2023-05-01T08:02:37.597Z,16.35
2023-05-01T08:03:37.820Z,16.23
2023-05-01T08:04:37.514Z,16.17
2023-05-01T08:05:37.433Z,16.20
2023-05-01T08:06:37.463Z,16.23
2023-05-01T08:07:37.395Z,16.23
2023-05-01T08:08:37.460Z,16.12
2023-05-01T08:09:37.549Z,16.10
2023-05-01T08:10:37.289Z,16.04
2023-05-01T08:11:37.265Z,16.01
2023-05-01T08:12:37.236Z,16.04
2023-05-01T08:13:37.277Z,16.23
2023-05-01T08:14:37.239Z,16.28
2023-05-01T08:15:37.180Z,16.29
2023-05-01T08:16:37.168Z,16.24
2023-05-01T08:17:37.146Z,16.26
2023-05-01T08:18:37.065Z,16.35
2023-05-01T08:19:37.091Z,16.31
2023-05-01T08:20:37.027Z,16.35
2023-05-01T08:21:36.966Z,16.42
2023-05-01T08:22:36.935Z,16.51
2023-05-01T08:23:36.923Z,16.54
2023-05-01T08:24:36.972Z,16.53
2023-05-01T08:25:36.849Z,16.56
2023-05-01T08:26:36.847Z,16.61
2023-05-01T08:27:36.808Z,16.64
2023-05-01T08:28:36.766Z,16.53
2023-05-01T08:29:36.736Z,16.60
2023-05-01T08:30:36.787Z,16.61
2023-05-01T08:31:36.719Z,16.60
2023-05-01T08:32:36.667Z,16.57
2023-05-01T08:33:36.620Z,16.57
2023-05-01T08:34:36.591Z,16.51
2023-05-01T08:35:36.560Z,16.57
2023-05-01T08:36:36.754Z,16.56
2023-05-01T08:37:36.504Z,16.47
2023-05-01T08:38:36.478Z,16.43
2023-05-01T08:39:36.531Z,16.57
2023-05-01T08:40:36.422Z,16.60
2023-05-01T08:41:36.380Z,16.49
2023-05-01T08:42:36.442Z,16.60
2023-05-01T08:43:36.332Z,16.56
2023-05-01T08:44:36.330Z,16.65
2023-05-01T08:45:36.304Z,16.71
2023-05-01T08:46:36.257Z,16.71
2023-05-01T08:47:36.239Z,16.71
2023-05-01T08:48:36.236Z,16.68
2023-05-01T08:49:36.138Z,16.72
2023-05-01T08:50:36.115Z,16.68
2023-05-01T08:51:36.094Z,16.78
2023-05-01T08:52:36.065Z,16.72
2023-05-01T08:53:36.023Z,16.72
2023-05-01T08:54:36.080Z,16.86
2023-05-01T08:55:35.982Z,16.96
2023-05-01T08:56:35.937Z,16.87
2023-05-01T08:57:35.919Z,16.87
2023-05-01T08:58:35.885Z,16.93
2023-05-01T08:59:35.864Z,16.96
2023-05-01T09:00:35.895Z,17.02
2023-05-01T09:01:35.822Z,17.11
2023-05-01T09:02:35.778Z,17.16
2023-05-01T09:03:35.750Z,17.27
2023-05-01T09:04:35.699Z,17.27
2023-05-01T09:05:35.680Z,17.38
2023-05-01T09:06:35.747Z,17.39
2023-05-01T09:07:35.606Z,17.31
2023-05-01T09:08:35.588Z,17.34
2023-05-01T09:09:35.552Z,17.44
2023-05-01T09:10:35.557Z,17.52
2023-05-01T09:11:35.534Z,17.52
2023-05-01T09:12:35.594Z,17.56
2023-05-01T09:13:35.433Z,17.80
2023-05-01T09:14:35.407Z,17.86
2023-05-01T09:15:35.378Z,17.90
2023-05-01T09:16:35.429Z,17.95
2023-05-01T09:17:35.399Z,17.94
2023-05-01T09:18:35.302Z,17.89
2023-05-01T09:19:35.262Z,17.85
2023-05-01T09:20:35.238Z,17.82
2023-05-01T09:21:35.341Z,17.92
2023-05-01T09:22:35.176Z,17.94
2023-05-01T09:23:35.190Z,17.94
2023-05-01T09:24:35.244Z,17.92
2023-05-01T09:25:35.181Z,17.80
2023-05-01T09:26:35.079Z,17.78
2023-05-01T09:27:35.040Z,17.80
2023-05-01T09:28:35.002Z,17.95
2023-05-01T09:29:35.028Z,17.97
2023-05-01T09:30:34.961Z,17.95
2023-05-01T09:31:35.009Z,17.71
2023-05-01T09:32:34.948Z,17.82
2023-05-01T09:33:34.864Z,17.79
2023-05-01T09:34:34.835Z,17.78
2023-05-01T09:35:34.879Z,17.74
2023-05-01T09:36:34.785Z,17.83
2023-05-01T09:37:34.751Z,17.79
2023-05-01T09:38:34.716Z,17.95
2023-05-01T09:39:34.699Z,17.90
2023-05-01T09:40:34.665Z,17.92
2023-05-01T09:41:34.697Z,18.00
2023-05-01T09:42:34.608Z,18.05
2023-05-01T09:43:34.573Z,17.97
2023-05-01T09:44:34.543Z,18.03
2023-05-01T09:45:34.528Z,17.94
2023-05-01T09:46:34.651Z,18.00
2023-05-01T09:47:34.571Z,17.80
2023-05-01T09:48:35.637Z,17.82
2023-05-01T09:49:34.676Z,17.68
2023-05-01T09:50:34.581Z,17.65
2023-05-01T09:51:34.345Z,17.67
2023-05-01T09:52:34.408Z,17.87
2023-05-01T09:53:34.280Z,17.86
2023-05-01T09:54:35.286Z,17.98
2023-05-01T09:55:34.288Z,17.94
2023-05-01T09:56:34.411Z,18.07
2023-05-01T09:57:34.170Z,18.05
2023-05-01T09:58:34.193Z,18.08
2023-05-01T09:59:34.120Z,18.04
2023-05-01T10:00:34.163Z,18.03
2023-05-01T10:01:34.102Z,18.03
2023-05-01T10:02:34.139Z,18.00
2023-05-01T10:03:34.070Z,17.97
2023-05-01T10:04:34.018Z,18.03
2023-05-01T10:05:33.944Z,17.90
2023-05-01T10:06:34.030Z,17.98
2023-05-01T10:07:33.970Z,17.95
2023-05-01T10:08:33.862Z,17.92
2023-05-01T10:09:33.842Z,18.13
2023-05-01T10:10:33.878Z,18.23
2023-05-01T10:11:33.761Z,18.22
2023-05-01T10:12:33.807Z,18.18
2023-05-01T10:13:33.757Z,18.15
2023-05-01T10:14:33.739Z,18.16
2023-05-01T10:15:33.660Z,18.29
2023-05-01T10:16:33.640Z,18.33
2023-05-01T10:17:33.688Z,18.31
2023-05-01T10:18:33.566Z,18.34
2023-05-01T10:19:33.549Z,18.41
2023-05-01T10:20:33.555Z,18.59
2023-05-01T10:21:33.473Z,18.66
2023-05-01T10:22:33.527Z,18.68
2023-05-01T10:23:33.424Z,18.81
2023-05-01T10:24:33.401Z,18.93
2023-05-01T10:25:33.358Z,18.86
2023-05-01T10:26:33.339Z,18.88
2023-05-01T10:27:33.321Z,18.81
2023-05-01T10:28:33.384Z,19.00
2023-05-01T10:29:33.254Z,18.90
2023-05-01T10:30:33.253Z,18.88
2023-05-01T10:31:33.584Z,18.92
2023-05-01T10:32:33.208Z,19.02
2023-05-01T10:33:33.140Z,19.09
2023-05-01T10:34:33.202Z,19.09
2023-05-01T10:35:33.076Z,18.99
2023-05-01T10:36:33.157Z,18.90
2023-05-01T10:37:33.030Z,18.95
2023-05-01T10:38:33.159Z,19.00
2023-05-01T10:39:32.966Z,19.09
2023-05-01T10:40:33.026Z,19.04
2023-05-01T10:41:33.019Z,18.98
2023-05-01T10:42:32.890Z,19.09
2023-05-01T10:43:32.866Z,19.14
2023-05-01T10:44:32.854Z,18.98
2023-05-01T10:45:33.938Z,18.95
2023-05-01T10:46:32.932Z,18.96
2023-05-01T10:47:32.759Z,18.90
2023-05-01T10:48:32.713Z,18.89
2023-05-01T10:49:32.681Z,18.96
2023-05-01T10:50:32.649Z,18.84
2023-05-01T10:51:32.636Z,18.80
2023-05-01T10:52:32.655Z,18.86
2023-05-01T10:53:32.571Z,18.84
2023-05-01T10:54:32.532Z,18.93
2023-05-01T10:55:32.518Z,18.88
2023-05-01T10:56:32.523Z,18.99
2023-05-01T10:57:32.475Z,18.98
2023-05-01T10:58:32.498Z,18.99
2023-05-01T10:59:32.394Z,18.95
2023-05-01T11:00:32.389Z,19.04
2023-05-01T11:01:32.362Z,19.12
2023-05-01T11:02:32.360Z,19.19
2023-05-01T11:03:32.293Z,19.33
2023-05-01T11:04:32.326Z,19.45
2023-05-01T11:05:38.511Z,19.66
2023-05-01T11:06:32.363Z,19.67
2023-05-01T11:07:32.197Z,19.66
2023-05-01T11:08:32.248Z,19.82
2023-05-01T11:09:32.126Z,19.82
2023-05-01T11:10:32.160Z,19.96
2023-05-01T11:11:32.163Z,20.10
2023-05-01T11:12:32.054Z,20.22
2023-05-01T11:13:32.001Z,20.21
2023-05-01T11:14:31.981Z,20.14
2023-05-01T11:15:31.975Z,20.21
2023-05-01T11:16:32.054Z,20.28
2023-05-01T11:17:31.939Z,20.39
2023-05-01T11:18:31.880Z,20.50
2023-05-01T11:19:31.865Z,20.59
2023-05-01T11:20:31.885Z,20.74
2023-05-01T11:21:31.801Z,20.90
2023-05-01T11:22:31.846Z,21.11
2023-05-01T11:23:31.765Z,21.06
2023-05-01T11:24:31.720Z,21.14
2023-05-01T11:25:31.715Z,21.15
2023-05-01T11:26:32.579Z,21.37
2023-05-01T11:27:31.714Z,21.55
2023-05-01T11:28:31.608Z,21.51
2023-05-01T11:29:31.611Z,21.46
2023-05-01T11:30:31.589Z,21.51
2023-05-01T11:31:31.587Z,21.57
2023-05-01T11:32:31.566Z,21.57
2023-05-01T11:33:32.019Z,21.60
2023-05-01T11:34:31.469Z,21.45
2023-05-01T11:35:31.436Z,21.35
2023-05-01T11:36:31.417Z,21.30
2023-05-01T11:37:31.379Z,21.03
2023-05-01T11:38:31.368Z,20.93
2023-05-01T11:39:31.452Z,20.66
2023-05-01T11:40:31.345Z,20.56
2023-05-01T11:41:31.329Z,20.47
2023-05-01T11:42:31.294Z,20.39
2023-05-01T11:43:31.231Z,20.43
2023-05-01T11:44:31.210Z,20.58
2023-05-01T11:45:31.291Z,20.60
2023-05-01T11:46:31.327Z,20.77
2023-05-01T11:47:31.860Z,20.93
2023-05-01T11:48:31.425Z,20.96
2023-05-01T11:49:31.099Z,21.03
2023-05-01T11:50:31.041Z,21.11
2023-05-01T11:51:31.028Z,21.06
2023-05-01T11:52:31.017Z,20.97
2023-05-01T11:53:30.961Z,21.06
2023-05-01T11:54:31.049Z,21.05
2023-05-01T11:55:30.916Z,21.06
2023-05-01T11:56:30.910Z,21.11
2023-05-01T11:57:30.862Z,21.09
2023-05-01T11:58:30.832Z,21.22
2023-05-01T11:59:30.872Z,21.32
2023-05-01T12:00:31.330Z,21.39
2023-05-01T12:01:30.785Z,21.40
2023-05-01T12:02:31.414Z,21.27
2023-05-01T12:03:30.796Z,21.25
2023-05-01T12:04:32.368Z,21.24
2023-05-01T12:05:30.787Z,21.22
2023-05-01T12:06:30.666Z,21.27
2023-05-01T12:07:30.586Z,21.29
2023-05-01T12:08:30.587Z,21.30
2023-05-01T12:09:30.586Z,21.33
2023-05-01T12:10:30.601Z,21.42
2023-05-01T12:11:30.496Z,21.20
2023-05-01T12:12:30.471Z,21.18
2023-05-01T12:13:30.460Z,21.05
2023-05-01T12:14:30.405Z,21.29
2023-05-01T12:15:30.400Z,21.32
2023-05-01T12:16:30.476Z,21.25
2023-05-01T12:17:30.428Z,21.03
2023-05-01T12:18:30.349Z,21.03
2023-05-01T12:19:30.283Z,21.03
2023-05-01T12:20:30.251Z,21.18
2023-05-01T12:21:30.290Z,21.36
2023-05-01T12:22:30.228Z,21.46
2023-05-01T12:23:30.194Z,21.60
2023-05-01T12:24:30.157Z,21.61
2023-05-01T12:25:30.171Z,21.60
2023-05-01T12:26:30.171Z,21.64
2023-05-01T12:27:30.073Z,21.69
2023-05-01T12:28:30.049Z,21.66
2023-05-01T12:29:30.050Z,21.62
2023-05-01T12:30:30.036Z,21.75
2023-05-01T12:31:30.087Z,21.88
2023-05-01T12:32:30.136Z,21.99
2023-05-01T12:33:29.931Z,22.07
2023-05-01T12:34:29.948Z,22.11
2023-05-01T12:35:29.877Z,22.11
2023-05-01T12:36:29.851Z,22.29
2023-05-01T12:37:29.832Z,22.41
2023-05-01T12:38:29.849Z,22.45
2023-05-01T12:39:29.788Z,22.41
2023-05-01T12:40:29.737Z,22.41
2023-05-01T12:41:29.719Z,22.38
2023-05-01T12:42:29.716Z,22.39
2023-05-01T12:43:29.655Z,22.14
2023-05-01T12:44:29.707Z,21.93
2023-05-01T12:45:29.608Z,21.98
2023-05-01T12:46:29.734Z,22.04
2023-05-01T12:47:29.708Z,22.04
2023-05-01T12:48:29.547Z,21.99
2023-05-01T12:49:29.532Z,22.04
2023-05-01T12:50:29.545Z,22.06
2023-05-01T12:51:29.461Z,22.00
2023-05-01T12:52:29.442Z,22.10
2023-05-01T12:53:29.429Z,22.02
2023-05-01T12:54:29.392Z,21.98
2023-05-01T12:55:29.376Z,21.96
2023-05-01T12:56:29.395Z,21.99
2023-05-01T12:57:29.305Z,21.92
2023-05-01T12:58:31.145Z,21.83
2023-05-01T12:59:29.267Z,21.75
2023-05-01T13:00:29.240Z,21.85
2023-05-01T13:01:29.288Z,22.00
2023-05-01T13:02:29.289Z,22.29
2023-05-01T13:03:29.257Z,22.44
2023-05-01T13:04:29.224Z,22.50